Time;durP1;ratioP1;P1;durP2;ratioP2;P2;SDS_P1;SDS_P2;PMS_P1;PMS_P2;Temp;Humidity;BMP_temperature;BMP_pressure;BME280_temperature;BME280_humidity;BME280_pressure;Samples;Min_cycle;Max_cycle;Signal;HPM_P1;HPM_P2
2023/07/18 00:00:14;;;;;;;;;2.67;1.00;;;;;21.11;43.13;101907.69;5020798;28;67303;-46
2023/07/18 00:02:45;;;;;;;;;2.00;2.00;;;;;21.12;43.32;101909.41;5021732;28;45604;-44
2023/07/18 00:05:12;;;;;;;;;3.33;1.00;;;;;21.11;43.59;101896.84;5021353;28;46045;-46
2023/07/18 00:07:41;;;;;;;;;3.00;1.00;;;;;21.10;42.88;101903.25;5021209;28;45463;-48
2023/07/18 00:10:10;;;;;;;;;1.33;1.33;;;;;21.07;43.20;101900.78;5021506;28;45447;-49
2023/07/18 00:12:36;;;;;;;;;5.00;2.67;;;;;21.05;44.01;101902.72;5020954;28;45332;-49
2023/07/18 00:15:04;;;;;;;;;2.67;2.00;;;;;21.03;43.49;101900.16;5021023;28;45416;-45
2023/07/18 00:17:31;;;;;;;;;2.00;2.00;;;;;21.02;43.92;101900.28;5021360;28;45434;-45
2023/07/18 00:19:56;;;;;;;;;1.33;1.00;;;;;20.99;43.44;101904.09;5021240;28;45463;-46
2023/07/18 00:22:22;;;;;;;;;3.00;1.00;;;;;20.98;44.15;101902.34;5021267;28;45455;-46
2023/07/18 00:24:47;;;;;;;;;2.00;2.00;;;;;20.96;43.84;101893.47;5020042;28;75442;-48
2023/07/18 00:27:16;;;;;;;;;4.33;3.00;;;;;20.94;44.04;101890.91;5019885;28;72597;-46
2023/07/18 00:29:42;;;;;;;;;2.33;2.33;;;;;20.92;43.95;101884.75;5020963;28;45427;-45
2023/07/18 00:32:07;;;;;;;;;4.00;2.67;;;;;20.90;44.56;101889.41;5020928;28;45646;-46
2023/07/18 00:34:32;;;;;;;;;4.00;3.00;;;;;20.86;44.44;101887.94;5020074;28;68185;-47
2023/07/18 00:36:58;;;;;;;;;2.00;2.00;;;;;20.85;44.03;101893.47;5019669;28;73556;-46
2023/07/18 00:39:23;;;;;;;;;3.00;3.00;;;;;20.84;44.46;101884.47;5020301;28;64446;-46
2023/07/18 00:41:49;;;;;;;;;1.67;1.67;;;;;20.82;44.63;101876.50;5021042;28;45356;-45
2023/07/18 00:44:14;;;;;;;;;3.00;2.00;;;;;20.82;44.56;101879.19;5020813;28;46124;-48
2023/07/18 00:46:39;;;;;;;;;4.00;2.33;;;;;20.80;44.75;101874.88;5020807;28;45393;-46
2023/07/18 00:49:05;;;;;;;;;3.00;2.00;;;;;20.78;44.35;101875.00;5018537;28;66383;-45
2023/07/18 00:51:30;;;;;;;;;2.00;2.00;;;;;20.74;44.11;101878.03;5019707;28;69635;-46
2023/07/18 00:53:56;;;;;;;;;3.33;2.33;;;;;20.70;44.91;101876.56;5020632;28;46144;-46
2023/07/18 00:56:22;;;;;;;;;3.00;1.33;;;;;20.70;45.04;101873.84;5020574;28;45592;-47
2023/07/18 00:58:48;;;;;;;;;1.67;1.00;;;;;20.66;44.87;101873.19;5020466;28;45344;-47
2023/07/18 01:01:13;;;;;;;;;4.33;3.00;;;;;20.60;44.75;101876.38;5018897;28;45508;-45
2023/07/18 01:03:39;;;;;;;;;2.00;2.00;;;;;20.58;44.70;101870.22;5020483;28;45423;-47
2023/07/18 01:06:05;;;;;;;;;4.67;3.00;;;;;20.57;44.72;101874.78;5019329;28;73322;-48
2023/07/18 01:08:30;;;;;;;;;3.33;2.33;;;;;20.55;44.96;101865.06;5020463;28;45459;-44
2023/07/18 01:10:56;;;;;;;;;3.00;3.00;;;;;20.51;45.43;101869.81;5020396;28;56958;-46
2023/07/18 01:13:22;;;;;;;;;4.00;2.00;;;;;20.46;44.70;101869.31;5020626;28;68203;-47
2023/07/18 01:15:47;;;;;;;;;0.67;0.67;;;;;20.42;44.92;101870.53;5020273;28;45514;-47
2023/07/18 01:18:13;;;;;;;;;1.00;1.00;;;;;20.37;45.71;101861.91;5019565;28;66895;-46
2023/07/18 01:20:39;;;;;;;;;5.00;2.00;;;;;20.36;45.50;101866.41;5020138;28;45406;-45
2023/07/18 01:23:05;;;;;;;;;2.67;2.67;;;;;20.36;45.66;101862.88;5020057;28;45387;-45
2023/07/18 01:25:30;;;;;;;;;4.00;3.00;;;;;20.35;45.73;101853.91;5020087;28;45394;-47
2023/07/18 01:27:57;;;;;;;;;2.67;2.00;;;;;20.31;45.89;101858.69;5019895;28;45691;-46
2023/07/18 01:30:24;;;;;;;;;4.00;2.00;;;;;20.31;45.52;101853.28;5020103;28;45559;-45
2023/07/18 01:32:50;;;;;;;;;3.00;3.00;;;;;20.31;45.58;101863.19;5019959;28;46209;-46
2023/07/18 01:35:17;;;;;;;;;5.00;2.00;;;;;20.28;46.30;101858.03;5019774;28;45724;-50
2023/07/18 01:37:46;;;;;;;;;3.67;3.67;;;;;20.26;45.81;101863.56;5020266;28;45355;-45
2023/07/18 01:40:14;;;;;;;;;4.00;3.00;;;;;20.23;46.12;101863.78;5020076;28;45420;-46
2023/07/18 01:42:40;;;;;;;;;4.00;2.33;;;;;20.21;46.19;101857.63;5019768;28;46203;-46
2023/07/18 01:45:09;;;;;;;;;5.33;4.33;;;;;20.21;46.25;101854.06;5020596;28;45509;-49
2023/07/18 01:47:36;;;;;;;;;6.00;6.00;;;;;20.17;46.59;101851.59;5020110;28;45369;-48
2023/07/18 01:50:04;;;;;;;;;4.00;3.33;;;;;20.14;45.79;101850.94;5019631;28;45388;-48
2023/07/18 01:52:30;;;;;;;;;4.00;4.00;;;;;20.11;46.34;101846.63;5019576;28;46183;-46
2023/07/18 01:54:58;;;;;;;;;4.00;3.00;;;;;20.10;46.18;101844.94;5019663;28;45343;-46
2023/07/18 01:57:45;;;;;;;;;3.67;3.00;;;;;20.10;45.91;101833.25;5019677;28;45277;-45
2023/07/18 02:00:12;;;;;;;;;5.00;3.67;;;;;20.08;46.63;101837.94;5019793;28;45481;-50
2023/07/18 02:02:38;;;;;;;;;5.00;3.33;;;;;20.08;46.48;101835.22;5019632;28;46154;-47
2023/07/18 02:05:04;;;;;;;;;6.33;5.00;;;;;20.08;46.60;101829.81;5019324;28;45392;-46
2023/07/18 02:07:30;;;;;;;;;3.00;2.67;;;;;20.07;46.44;101828.09;5019679;28;45320;-46
2023/07/18 02:09:56;;;;;;;;;5.67;3.00;;;;;20.06;46.74;101829.06;5019843;28;45252;-47
2023/07/18 02:12:21;;;;;;;;;5.33;3.00;;;;;20.04;46.44;101822.91;5018183;28;48579;-46
2023/07/18 02:14:46;;;;;;;;;8.33;4.00;;;;;20.02;46.49;101824.88;5021492;28;45351;-46
2023/07/18 02:17:12;;;;;;;;;3.00;3.00;;;;;19.99;47.03;101817.88;5022572;28;67741;-46
2023/07/18 02:19:37;;;;;;;;;3.00;3.00;;;;;19.98;46.62;101818.81;5022657;28;55048;-48
2023/07/18 02:22:03;;;;;;;;;6.67;4.00;;;;;19.97;47.03;101815.28;5022670;28;47239;-46
2023/07/18 02:24:29;;;;;;;;;7.00;4.33;;;;;19.96;46.60;101820.81;5023246;28;45289;-44
2023/07/18 02:26:54;;;;;;;;;3.33;3.33;;;;;19.93;47.05;101810.22;5022900;28;45224;-46
2023/07/18 02:29:20;;;;;;;;;3.33;3.33;;;;;19.91;47.28;101813.03;5022023;28;64501;-47
2023/07/18 02:31:46;;;;;;;;;4.33;4.33;;;;;19.90;46.68;101814.00;5022850;28;46132;-50
2023/07/18 02:34:11;;;;;;;;;4.00;3.00;;;;;19.88;46.70;101813.25;5021540;28;45869;-50
2023/07/18 02:36:36;;;;;;;;;4.67;3.00;;;;;19.88;46.99;101802.47;5022448;28;56174;-49
2023/07/18 02:39:03;;;;;;;;;5.67;3.00;;;;;19.86;46.83;101804.41;5022861;28;45398;-48
2023/07/18 02:41:29;;;;;;;;;3.00;3.00;;;;;19.83;46.89;101799.25;5022872;28;46131;-48
2023/07/18 02:43:54;;;;;;;;;5.33;4.00;;;;;19.80;47.38;101794.91;5022285;28;68634;-49
2023/07/18 02:46:19;;;;;;;;;3.00;3.00;;;;;19.78;47.25;101796.00;5022336;28;68143;-45
2023/07/18 02:48:45;;;;;;;;;4.00;3.00;;;;;19.75;47.62;101786.28;5022912;28;45467;-48
2023/07/18 02:51:10;;;;;;;;;3.00;3.00;;;;;19.74;47.02;101792.66;5022587;28;46141;-49
2023/07/18 02:53:36;;;;;;;;;4.33;3.00;;;;;19.72;47.37;101793.72;5022447;28;45332;-50
2023/07/18 02:56:01;;;;;;;;;4.00;3.00;;;;;19.67;46.97;101786.84;5021988;28;57851;-48
2023/07/18 02:58:27;;;;;;;;;5.33;2.67;;;;;19.64;47.06;101788.88;5021630;28;66984;-45
2023/07/18 03:00:52;;;;;;;;;5.00;5.00;;;;;19.60;47.03;101782.84;5022370;28;45980;-46
2023/07/18 03:03:17;;;;;;;;;5.00;3.00;;;;;19.58;47.29;101781.22;5022457;28;45206;-46
2023/07/18 03:05:43;;;;;;;;;3.33;3.33;;;;;19.54;47.64;101783.28;5020239;28;65710;-48
2023/07/18 03:08:08;;;;;;;;;5.00;3.00;;;;;19.54;47.51;101777.03;5022268;28;47138;-44
2023/07/18 03:10:34;;;;;;;;;4.33;3.00;;;;;19.52;47.54;101774.47;5022088;28;47011;-46
2023/07/18 03:13:00;;;;;;;;;4.00;2.33;;;;;19.49;47.87;101774.69;5022083;28;45478;-44
2023/07/18 03:15:25;;;;;;;;;2.67;2.67;;;;;19.49;47.75;101775.53;5021541;28;58995;-45
2023/07/18 03:17:50;;;;;;;;;6.00;3.00;;;;;19.47;47.36;101771.22;5022223;28;45676;-46
2023/07/18 03:20:19;;;;;;;;;3.00;3.00;;;;;19.44;48.01;101760.69;5020833;28;70537;-47
2023/07/18 03:22:49;;;;;;;;;2.33;2.33;;;;;19.41;48.30;101761.75;5022031;28;45349;-47
2023/07/18 03:25:14;;;;;;;;;3.33;3.00;;;;;19.39;47.99;101765.53;5021584;28;45362;-46
2023/07/18 03:27:40;;;;;;;;;4.00;2.00;;;;;19.38;47.39;101766.50;5021711;28;45515;-45
2023/07/18 03:30:06;;;;;;;;;2.67;2.67;;;;;19.31;48.02;101764.25;5021596;28;46506;-51
2023/07/18 03:32:32;;;;;;;;;2.33;1.33;;;;;19.27;48.12;101768.13;5021911;28;45439;-45
2023/07/18 03:34:58;;;;;;;;;1.67;1.00;;;;;19.25;48.12;101764.69;5021890;28;45492;-45
2023/07/18 03:37:25;;;;;;;;;5.00;2.00;;;;;19.21;48.07;101771.28;5021757;28;45493;-47
2023/07/18 03:39:50;;;;;;;;;2.67;2.67;;;;;19.20;48.10;101769.53;5021846;28;46316;-44
2023/07/18 03:42:16;;;;;;;;;3.00;3.00;;;;;19.15;48.08;101764.50;5021041;28;69495;-45
2023/07/18 03:44:41;;;;;;;;;2.67;2.67;;;;;19.13;48.45;101761.03;5021610;28;45339;-46
2023/07/18 03:47:06;;;;;;;;;3.67;3.67;;;;;19.13;48.54;101747.53;5021187;28;68643;-47
2023/07/18 03:49:32;;;;;;;;;2.33;2.33;;;;;19.12;48.59;101753.06;5020461;28;70759;-46
2023/07/18 03:51:57;;;;;;;;;1.00;0.00;;;;;19.12;48.26;101751.22;5021837;28;45304;-48
2023/07/18 03:54:23;;;;;;;;;2.00;2.00;;;;;19.12;48.43;101748.50;5020672;28;69150;-45
2023/07/18 03:56:48;;;;;;;;;3.00;2.00;;;;;19.13;48.20;101752.94;5020927;28;69768;-45
2023/07/18 03:59:13;;;;;;;;;2.33;2.33;;;;;19.13;48.51;101752.09;5020585;28;72141;-47
2023/07/18 04:01:38;;;;;;;;;2.67;2.33;;;;;19.11;48.69;101741.41;5020495;28;71737;-49
2023/07/18 04:04:04;;;;;;;;;2.00;2.00;;;;;19.11;48.62;101746.81;5020633;28;66354;-48
2023/07/18 04:06:29;;;;;;;;;3.00;2.00;;;;;19.11;48.55;101748.63;5021664;28;45379;-49
2023/07/18 04:08:55;;;;;;;;;5.00;2.00;;;;;19.10;48.38;101744.19;5021143;28;45940;-46
2023/07/18 04:11:20;;;;;;;;;2.00;2.00;;;;;19.11;48.43;101743.22;5019585;28;57398;-45
2023/07/18 04:13:45;;;;;;;;;2.00;1.00;;;;;19.09;48.32;101742.50;5020829;28;51482;-44
2023/07/18 04:16:11;;;;;;;;;3.00;3.00;;;;;19.09;48.79;101739.81;5020470;28;69455;-46
2023/07/18 04:18:36;;;;;;;;;3.00;0.00;;;;;19.09;48.56;101735.25;5021359;28;46037;-46
2023/07/18 04:21:02;;;;;;;;;2.33;2.33;;;;;19.09;48.77;101735.25;5020949;28;55376;-44
2023/07/18 04:23:28;;;;;;;;;5.33;3.00;;;;;19.10;48.33;101733.41;5021232;28;45566;-45
2023/07/18 04:25:59;;;;;;;;;3.00;2.00;;;;;19.10;48.45;101726.22;5021054;28;45474;-48
2023/07/18 04:28:26;;;;;;;;;4.00;2.67;;;;;19.12;48.76;101728.78;5020623;28;46102;-45
2023/07/18 04:30:51;;;;;;;;;2.00;2.00;;;;;19.12;48.15;101718.00;5021092;28;45260;-44
2023/07/18 04:33:17;;;;;;;;;3.00;1.33;;;;;19.14;48.33;101716.06;5020702;28;45708;-46
2023/07/18 04:35:43;;;;;;;;;4.33;2.00;;;;;19.15;48.18;101715.06;5020021;28;62535;-44
2023/07/18 04:38:09;;;;;;;;;2.33;2.33;;;;;19.17;48.41;101708.59;5019930;28;46227;-46
2023/07/18 04:40:34;;;;;;;;;4.00;4.00;;;;;19.20;48.23;101709.38;5020767;28;45314;-49
2023/07/18 04:43:00;;;;;;;;;4.00;2.33;;;;;19.22;48.22;101710.97;5020808;28;45390;-44
2023/07/18 04:45:26;;;;;;;;;4.33;3.00;;;;;19.24;48.03;101706.34;5019820;28;45574;-46
2023/07/18 04:47:51;;;;;;;;;4.33;3.00;;;;;19.27;47.80;101705.25;5019695;28;70824;-44
2023/07/18 04:50:16;;;;;;;;;3.67;2.33;;;;;19.31;48.13;101701.38;5020217;28;63154;-44
2023/07/18 04:52:42;;;;;;;;;3.67;3.67;;;;;19.34;48.25;101706.53;5020666;28;45321;-44
2023/07/18 04:55:08;;;;;;;;;5.00;5.00;;;;;19.38;47.82;101709.88;5019459;28;65636;-47
2023/07/18 04:57:34;;;;;;;;;5.00;4.00;;;;;19.42;47.72;101701.41;5019116;28;45363;-46
2023/07/18 04:59:59;;;;;;;;;2.00;2.00;;;;;19.47;47.82;101695.69;5020932;28;45325;-45
2023/07/18 05:02:25;;;;;;;;;3.00;3.00;;;;;19.53;47.33;101694.38;5020069;28;59403;-47
2023/07/18 05:04:50;;;;;;;;;2.67;2.67;;;;;19.56;47.54;101692.31;5019651;28;63701;-46
2023/07/18 05:07:15;;;;;;;;;4.00;2.00;;;;;19.57;47.52;101691.34;5019188;28;73291;-45
2023/07/18 05:09:41;;;;;;;;;4.67;3.00;;;;;19.56;46.90;101681.53;5020056;28;53814;-45
2023/07/18 05:12:06;;;;;;;;;2.00;2.00;;;;;19.55;46.98;101671.69;5017795;28;63045;-44
2023/07/18 05:14:32;;;;;;;;;2.00;2.00;;;;;19.59;46.98;101666.94;5019563;28;45407;-45
2023/07/18 05:16:57;;;;;;;;;2.00;2.00;;;;;19.61;47.00;101665.00;5017601;28;45432;-45
2023/07/18 05:19:23;;;;;;;;;1.33;1.00;;;;;19.61;47.15;101676.66;5016304;28;54798;-45
2023/07/18 05:21:48;;;;;;;;;3.33;2.00;;;;;19.62;46.72;101683.78;5018698;28;45745;-45
2023/07/18 05:24:13;;;;;;;;;4.33;2.00;;;;;19.66;46.86;101681.72;5017424;28;68716;-46
2023/07/18 05:26:39;;;;;;;;;1.33;1.33;;;;;19.72;46.84;101683.09;5016576;28;74552;-44
2023/07/18 05:29:04;;;;;;;;;3.00;1.00;;;;;19.80;46.71;101686.06;5017062;28;65315;-47
2023/07/18 05:31:29;;;;;;;;;3.33;2.67;;;;;19.79;46.46;101689.72;5018799;28;65385;-46
2023/07/18 05:33:55;;;;;;;;;5.00;3.00;;;;;19.80;46.25;101669.84;5020223;28;45360;-47
2023/07/18 05:36:20;;;;;;;;;3.00;1.33;;;;;19.82;46.48;101666.09;5019567;28;56808;-47
2023/07/18 05:38:45;;;;;;;;;2.00;2.00;;;;;19.87;46.47;101665.75;5018990;28;71052;-44
2023/07/18 05:41:11;;;;;;;;;1.00;1.00;;;;;19.93;46.08;101670.72;5019793;28;54381;-45
2023/07/18 05:43:36;;;;;;;;;1.00;1.00;;;;;20.00;46.01;101673.78;5019784;28;45630;-47
2023/07/18 05:46:01;;;;;;;;;3.00;1.00;;;;;20.07;45.89;101677.72;5002034;28;46282;-44
2023/07/18 05:48:27;;;;;;;;;2.67;1.67;;;;;20.17;45.08;101677.91;5013873;28;71741;-45
2023/07/18 05:50:55;;;;;;;;;1.00;1.00;;;;;20.32;45.32;101681.25;5011893;28;45701;-45
2023/07/18 05:53:20;;;;;;;;;2.33;0.67;;;;;20.51;44.86;101686.06;5019746;28;45672;-45
2023/07/18 05:55:46;;;;;;;;;1.67;1.67;;;;;20.64;44.62;101684.13;5019723;28;46242;-46
2023/07/18 05:58:11;;;;;;;;;1.00;1.00;;;;;20.66;44.43;101682.19;5017200;28;63258;-45
2023/07/18 06:00:36;;;;;;;;;1.00;1.00;;;;;20.62;44.63;101688.81;5017637;28;65808;-45
2023/07/18 06:03:02;;;;;;;;;0.67;0.67;;;;;20.60;43.98;101685.34;5013338;28;45389;-45
2023/07/18 06:05:28;;;;;;;;;1.00;1.00;;;;;20.66;44.11;101682.19;5017619;28;47136;-45
2023/07/18 06:07:53;;;;;;;;;1.67;0.67;;;;;20.77;44.14;101689.44;5017302;28;45572;-44
2023/07/18 06:10:18;;;;;;;;;1.00;1.00;;;;;20.85;44.17;101688.84;5016445;28;66864;-46
2023/07/18 06:12:44;;;;;;;;;1.67;1.33;;;;;20.94;43.33;101688.09;5017794;28;45449;-45
2023/07/18 06:15:10;;;;;;;;;2.00;1.00;;;;;20.99;43.12;101680.47;5018167;28;47987;-45
2023/07/18 06:17:35;;;;;;;;;3.33;1.67;;;;;21.09;43.01;101691.44;5019397;28;45336;-44
2023/07/18 06:20:03;;;;;;;;;1.00;0.67;;;;;21.16;43.28;101694.50;5018142;28;45388;-45
2023/07/18 06:22:29;;;;;;;;;1.00;1.00;;;;;21.28;43.00;101701.59;5019262;28;45586;-45
2023/07/18 06:24:54;;;;;;;;;1.67;1.67;;;;;21.45;42.57;101699.38;5019265;28;46970;-46
2023/07/18 06:27:19;;;;;;;;;2.00;2.00;;;;;21.62;42.88;101692.59;5018690;28;51507;-45
2023/07/18 06:29:46;;;;;;;;;3.00;1.00;;;;;21.78;41.82;101689.44;5018350;28;68909;-45
2023/07/18 06:32:12;;;;;;;;;4.00;1.00;;;;;21.90;41.25;101691.16;5019317;28;45417;-45
2023/07/18 06:34:40;;;;;;;;;2.67;0.33;;;;;22.10;41.34;101704.84;5017674;28;46251;-46
2023/07/18 06:37:08;;;;;;;;;1.67;1.67;;;;;22.43;40.76;101694.84;5018700;28;45313;-45
2023/07/18 06:39:34;;;;;;;;;1.33;1.33;;;;;22.91;40.47;101696.09;5019500;28;45423;-46
2023/07/18 06:41:59;;;;;;;;;1.00;1.00;;;;;23.43;39.95;101704.16;5019267;28;45585;-46
2023/07/18 06:44:25;;;;;;;;;1.00;1.00;;;;;23.72;38.55;101712.34;5018728;28;45943;-46
2023/07/18 06:46:50;;;;;;;;;1.00;1.00;;;;;23.91;38.43;101721.53;5019122;28;45442;-49
2023/07/18 06:49:18;;;;;;;;;1.00;1.00;;;;;24.79;37.49;101698.84;5018329;28;64076;-46
2023/07/18 06:51:43;;;;;;;;;1.00;1.00;;;;;25.69;35.39;101686.31;5020082;28;45606;-49
2023/07/18 06:54:09;;;;;;;;;1.00;1.00;;;;;25.24;35.20;101681.75;5018302;28;45431;-45
2023/07/18 06:56:34;;;;;;;;;1.33;1.33;;;;;24.73;35.82;101684.84;5016589;28;45372;-47
2023/07/18 06:59:01;;;;;;;;;0.67;0.67;;;;;24.24;35.99;101695.78;5018501;28;45404;-47
2023/07/18 07:01:26;;;;;;;;;2.00;2.00;;;;;23.95;36.46;101712.13;5021742;28;45443;-48
2023/07/18 07:03:51;;;;;;;;;0.67;0.33;;;;;24.03;36.65;101704.09;5022031;28;46896;-46
2023/07/18 07:06:18;;;;;;;;;1.67;1.67;;;;;24.24;35.86;101712.09;5020691;28;45539;-44
2023/07/18 07:08:43;;;;;;;;;0.00;0.00;;;;;24.12;35.98;101715.97;5022340;28;45383;-46
2023/07/18 07:11:09;;;;;;;;;2.00;2.00;;;;;24.06;36.41;101705.66;5022279;28;45151;-44
2023/07/18 07:13:36;;;;;;;;;1.33;0.00;;;;;24.03;36.36;101714.13;5021881;28;47165;-48
2023/07/18 07:16:03;;;;;;;;;1.00;0.00;;;;;23.86;36.19;101713.78;5022228;28;45277;-44
2023/07/18 07:18:29;;;;;;;;;1.00;0.25;;;;;23.57;36.17;101702.88;5022186;28;45414;-47
2023/07/18 07:20:54;;;;;;;;;0.00;0.00;;;;;23.41;36.58;101709.72;5022275;28;45660;-46
2023/07/18 07:23:20;;;;;;;;;2.33;1.00;;;;;23.57;36.52;101717.34;5022003;28;45372;-47
2023/07/18 07:25:45;;;;;;;;;1.33;1.00;;;;;23.94;36.55;101718.53;5022118;28;45370;-48
2023/07/18 07:28:11;;;;;;;;;0.00;0.00;;;;;24.85;36.21;101720.88;5021874;28;45372;-46
2023/07/18 07:30:36;;;;;;;;;1.00;1.00;;;;;25.35;35.63;101724.25;5019977;28;62167;-47
2023/07/18 07:33:03;;;;;;;;;1.00;1.00;;;;;27.99;33.34;101726.88;5020357;28;47103;-45
2023/07/18 07:35:29;;;;;;;;;2.00;1.00;;;;;31.35;30.86;101717.88;5021904;28;45411;-45
2023/07/18 07:37:55;;;;;;;;;1.00;1.00;;;;;33.76;28.09;101667.28;5021830;28;45367;-46
2023/07/18 07:40:21;;;;;;;;;1.00;1.00;;;;;33.99;25.99;101651.41;5021288;28;63511;-47
2023/07/18 07:42:46;;;;;;;;;1.00;1.00;;;;;32.62;26.28;101621.91;5020457;28;74722;-48
2023/07/18 07:45:13;;;;;;;;;1.00;1.00;;;;;30.97;26.55;101613.66;5020469;28;45402;-47
2023/07/18 07:47:39;;;;;;;;;2.00;2.00;;;;;29.52;28.29;101602.78;5022145;28;45353;-46
2023/07/18 07:50:06;;;;;;;;;1.00;1.00;;;;;28.32;29.24;101560.09;5021014;28;51843;-45
2023/07/18 07:52:31;;;;;;;;;2.25;1.50;;;;;27.31;29.93;101529.44;5021636;28;46373;-46
2023/07/18 07:54:57;;;;;;;;;2.75;1.00;;;;;26.53;30.52;101506.88;5021492;28;45348;-46
2023/07/18 07:57:22;;;;;;;;;2.33;1.67;;;;;26.03;31.41;101508.47;5021314;28;57991;-46
2023/07/18 07:59:48;;;;;;;;;2.00;2.00;;;;;25.70;31.88;101521.88;5020702;28;70425;-46
2023/07/18 08:02:14;;;;;;;;;2.00;2.00;;;;;26.15;32.03;101508.22;5021299;28;45915;-45
2023/07/18 08:04:41;;;;;;;;;2.00;2.00;;;;;29.48;31.01;101483.63;5019990;28;45447;-46
2023/07/18 08:07:10;;;;;;;;;1.00;1.00;;;;;33.12;27.81;101471.06;5021331;28;45443;-45
2023/07/18 08:09:36;;;;;;;;;1.00;1.00;;;;;35.97;23.81;101449.06;5021130;28;45389;-48
2023/07/18 08:12:03;;;;;;;;;1.25;1.00;;;;;38.06;22.99;101457.50;5021257;28;46201;-49
2023/07/18 08:14:28;;;;;;;;;1.00;1.00;;;;;39.83;21.26;101456.69;5021225;28;45260;-45
2023/07/18 08:16:54;;;;;;;;;0.75;0.50;;;;;41.40;20.04;101443.03;5021565;28;45398;-45
2023/07/18 08:19:19;;;;;;;;;0.25;0.00;;;;;42.73;18.79;101438.28;5021146;28;45233;-45
2023/07/18 08:21:45;;;;;;;;;1.75;1.50;;;;;43.83;17.75;101446.22;5020927;28;45916;-47
2023/07/18 08:24:10;;;;;;;;;0.25;0.25;;;;;44.75;16.93;101453.31;5021187;28;45308;-49
2023/07/18 08:26:35;;;;;;;;;3.25;1.25;;;;;45.62;15.98;101468.53;5021184;28;45467;-48
2023/07/18 08:29:01;;;;;;;;;0.25;0.25;;;;;46.35;15.97;101493.75;5020184;28;66959;-46
2023/07/18 08:31:26;;;;;;;;;3.25;1.00;;;;;47.01;14.81;101508.75;5020932;28;46202;-45
2023/07/18 08:33:51;;;;;;;;;2.00;1.00;;;;;47.41;14.33;101515.97;5020670;28;45409;-46
2023/07/18 08:36:17;;;;;;;;;1.00;1.00;;;;;47.53;13.48;101519.16;5019888;28;68157;-47
2023/07/18 08:38:49;;;;;;;;;2.25;0.25;;;;;47.77;13.79;101532.19;5020447;28;49892;-46
2023/07/18 08:41:14;;;;;;;;;1.50;1.00;;;;;48.14;13.62;101545.25;5020640;28;46426;-43
2023/07/18 08:43:39;;;;;;;;;1.25;1.25;;;;;48.41;13.35;101552.03;5020558;28;45221;-45
2023/07/18 08:46:05;;;;;;;;;2.75;1.00;;;;;48.42;11.14;101558.50;5019982;28;67921;-45
2023/07/18 08:48:31;;;;;;;;;2.00;0.25;;;;;48.19;13.05;101559.25;5019358;28;45443;-49
2023/07/18 08:50:58;;;;;;;;;3.00;1.00;;;;;48.48;12.65;101555.22;5020692;28;46287;-46
2023/07/18 08:53:24;;;;;;;;;2.00;0.50;;;;;48.72;12.21;101551.31;5019194;28;45383;-46
2023/07/18 08:55:49;;;;;;;;;2.25;2.25;;;;;48.87;12.04;101549.28;5019745;28;59600;-46
2023/07/18 08:58:18;;;;;;;;;1.75;1.00;;;;;49.20;12.32;101557.53;5019459;28;45549;-45
2023/07/18 09:00:43;;;;;;;;;3.00;1.50;;;;;49.42;11.26;101557.50;5020419;28;45349;-48
2023/07/18 09:03:08;;;;;;;;;0.00;0.00;;;;;49.70;11.07;101562.16;5019512;28;45240;-46
2023/07/18 09:05:35;;;;;;;;;6.25;2.00;;;;;49.99;11.52;101567.28;5020445;28;45230;-49
2023/07/18 09:08:02;;;;;;;;;0.75;0.00;;;;;50.13;10.83;101562.31;5007166;28;45419;-50
2023/07/18 09:10:28;;;;;;;;;3.00;1.00;;;;;50.08;10.65;101565.31;5020349;28;45407;-48
2023/07/18 09:12:54;;;;;;;;;4.25;2.00;;;;;50.11;11.20;101556.16;5018227;28;54168;-49
2023/07/18 09:15:20;;;;;;;;;4.00;1.25;;;;;50.30;10.93;101550.22;5020409;28;45415;-48
2023/07/18 09:18:01;;;;;;;;;1.75;1.75;;;;;50.48;10.74;101551.09;5020384;28;45875;-48
2023/07/18 09:20:27;;;;;;;;;2.00;2.00;;;;;50.52;10.12;101550.41;5018759;28;46227;-47
2023/07/18 09:22:57;;;;;;;;;3.25;0.50;;;;;49.99;10.13;101553.16;5019889;28;45396;-47
2023/07/18 09:25:26;;;;;;;;;2.75;1.50;;;;;49.70;10.27;101536.72;5020290;28;45641;-49
2023/07/18 09:27:52;;;;;;;;;3.00;1.50;;;;;49.70;10.42;101533.91;5019579;28;45408;-48
2023/07/18 09:30:36;;;;;;;;;3.50;2.00;;;;;49.57;10.99;101544.09;5019892;28;46522;-47
2023/07/18 09:33:06;;;;;;;;;2.00;2.00;;;;;49.60;11.00;101538.66;5020162;28;45439;-47
2023/07/18 09:35:41;;;;;;;;;1.75;1.75;;;;;49.44;10.90;101541.06;5020189;28;45427;-47
2023/07/18 09:38:10;;;;;;;;;2.75;2.00;;;;;49.18;10.50;101536.09;5020112;28;45458;-48
2023/07/18 09:40:37;;;;;;;;;3.25;1.25;;;;;49.06;10.41;101527.34;5019973;28;46174;-48
2023/07/18 09:43:02;;;;;;;;;2.25;1.50;;;;;49.22;10.19;101518.50;5018359;28;45559;-47
2023/07/18 09:45:29;;;;;;;;;1.75;1.00;;;;;49.18;10.88;101507.00;5019077;28;69011;-48
2023/07/18 09:47:54;;;;;;;;;2.00;2.00;;;;;49.30;10.45;101506.47;5018471;28;45418;-49
2023/07/18 09:50:20;;;;;;;;;5.67;5.67;;;;;49.42;10.28;101508.69;5018579;28;45983;-49
2023/07/18 09:52:49;;;;;;;;;2.50;2.50;;;;;49.40;10.53;101506.16;5018990;28;57661;-49
2023/07/18 09:55:21;;;;;;;;;1.00;1.00;;;;;49.42;10.48;101506.66;5019918;28;45366;-46
2023/07/18 09:57:47;;;;;;;;;1.50;1.50;;;;;49.41;10.63;101502.19;5019005;28;45369;-47
2023/07/18 10:00:15;;;;;;;;;3.00;2.00;;;;;49.30;10.61;101498.81;5001729;28;46954;-48
2023/07/18 10:02:40;;;;;;;;;3.75;2.75;;;;;48.96;10.26;101497.44;5019728;28;45375;-50
2023/07/18 10:05:09;;;;;;;;;2.00;1.25;;;;;48.70;10.23;101491.59;5019737;28;45728;-46
2023/07/18 10:07:35;;;;;;;;;1.00;1.00;;;;;48.37;9.62;101494.59;5018620;28;45427;-49
2023/07/18 10:10:02;;;;;;;;;2.75;1.50;;;;;47.67;10.98;101491.00;5019414;28;46304;-46
2023/07/18 10:12:27;;;;;;;;;4.75;2.25;;;;;47.04;11.30;101488.50;5019114;28;45524;-46
2023/07/18 10:14:56;;;;;;;;;2.00;2.00;;;;;47.02;11.61;101487.09;5019755;28;45506;-45
2023/07/18 10:17:28;;;;;;;;;5.25;2.00;;;;;47.03;11.08;101478.34;5019396;28;45485;-49
2023/07/18 10:19:54;;;;;;;;;2.50;2.00;;;;;46.98;11.26;101481.25;5019154;28;47148;-48
2023/07/18 10:22:27;;;;;;;;;1.75;1.75;;;;;46.79;11.38;101472.00;5017639;28;45365;-47
2023/07/18 10:24:57;;;;;;;;;3.75;2.00;;;;;46.67;11.78;101467.69;5018595;28;45431;-46
2023/07/18 10:27:24;;;;;;;;;1.25;0.75;;;;;46.56;11.55;101468.97;5019304;28;45544;-51
2023/07/18 10:30:19;;;;;;;;;3.50;2.25;;;;;46.41;11.46;101456.00;5017538;28;46374;-49
2023/07/18 10:32:56;;;;;;;;;3.00;1.00;;;;;46.19;11.89;101456.56;5018855;28;45433;-48
2023/07/18 10:35:26;;;;;;;;;2.50;1.00;;;;;45.99;12.08;101460.50;5021122;28;45433;-51
2023/07/18 10:38:06;;;;;;;;;1.75;1.25;;;;;45.41;11.66;101456.63;5022815;28;45507;-49
2023/07/18 10:40:42;;;;;;;;;5.00;1.25;;;;;45.05;11.85;101449.41;5009648;28;45365;-49
2023/07/18 10:43:09;;;;;;;;;3.75;1.00;;;;;44.74;12.18;101435.66;5022446;28;45440;-48
2023/07/18 10:45:36;;;;;;;;;0.50;0.50;;;;;44.01;12.52;101434.41;5022803;28;45430;-49
2023/07/18 10:48:10;;;;;;;;;1.75;1.75;;;;;43.35;12.49;101425.09;5022362;28;45387;-45
2023/07/18 10:50:35;;;;;;;;;2.75;0.75;;;;;42.48;12.76;101423.13;5022591;28;47028;-49
2023/07/18 10:53:01;;;;;;;;;2.50;2.50;;;;;41.40;14.10;101425.47;5021738;28;65743;-49
2023/07/18 10:55:27;;;;;;;;;3.00;1.50;;;;;40.25;14.82;101419.94;5021582;28;67530;-49
2023/07/18 10:57:53;;;;;;;;;3.00;3.00;;;;;39.50;15.48;101416.72;5022615;28;45524;-48
2023/07/18 11:00:19;;;;;;;;;1.75;1.00;;;;;39.09;15.85;101414.16;5021978;28;64471;-46
2023/07/18 11:02:44;;;;;;;;;1.00;1.00;;;;;38.76;16.08;101407.50;5022505;28;45407;-51
2023/07/18 11:05:12;;;;;;;;;1.75;0.00;;;;;38.52;16.43;101406.75;5022750;28;45237;-46
2023/07/18 11:07:42;;;;;;;;;2.75;2.75;;;;;38.41;16.59;101407.66;5022513;28;45647;-48
2023/07/18 11:10:12;;;;;;;;;2.25;2.25;;;;;38.37;17.00;101399.84;5021154;28;46396;-49
2023/07/18 11:12:38;;;;;;;;;3.00;3.00;;;;;38.52;15.97;101401.22;5022165;28;45383;-49
2023/07/18 11:15:06;;;;;;;;;1.50;1.50;;;;;38.63;16.42;101403.09;5022515;28;45410;-48
2023/07/18 11:17:31;;;;;;;;;5.00;2.00;;;;;38.65;16.70;101412.00;5020912;28;45575;-47
2023/07/18 11:20:00;;;;;;;;;0.00;0.00;;;;;38.53;17.02;101405.66;5022097;28;45406;-51